sensor_id;sensor_type;location;lat;lon;timestamp;P1;durP1;ratioP1;P2;durP2;ratioP2
13801;SDS011;6972;51.518;6.918;2022-07-23T00:01:32;8.82;;;5.03;;
13801;SDS011;6972;51.518;6.918;2022-07-23T00:03:58;12.73;;;5.13;;
13801;SDS011;6972;51.518;6.918;2022-07-23T00:06:24;9.40;;;5.43;;
13801;SDS011;6972;51.518;6.918;2022-07-23T00:08:50;8.10;;;4.50;;
13801;SDS011;6972;51.518;6.918;2022-07-23T00:11:16;9.18;;;5.07;;
13801;SDS011;6972;51.518;6.918;2022-07-23T00:13:42;8.30;;;4.70;;
13801;SDS011;6972;51.518;6.918;2022-07-23T00:16:08;10.00;;;4.95;;
13801;SDS011;6972;51.518;6.918;2022-07-23T00:18:34;8.27;;;4.80;;
13801;SDS011;6972;51.518;6.918;2022-07-23T00:21:00;10.98;;;4.60;;
13801;SDS011;6972;51.518;6.918;2022-07-23T00:23:26;8.77;;;4.75;;
13801;SDS011;6972;51.518;6.918;2022-07-23T00:25:53;10.02;;;4.80;;
13801;SDS011;6972;51.518;6.918;2022-07-23T00:28:19;8.70;;;4.80;;
13801;SDS011;6972;51.518;6.918;2022-07-23T00:30:46;11.00;;;4.82;;
13801;SDS011;6972;51.518;6.918;2022-07-23T00:33:11;7.00;;;4.35;;
13801;SDS011;6972;51.518;6.918;2022-07-23T00:35:37;8.93;;;4.95;;
13801;SDS011;6972;51.518;6.918;2022-07-23T00:38:08;11.20;;;5.07;;
13801;SDS011;6972;51.518;6.918;2022-07-23T00:40:35;5.38;;;4.72;;
13801;SDS011;6972;51.518;6.918;2022-07-23T00:43:02;8.35;;;4.85;;
13801;SDS011;6972;51.518;6.918;2022-07-23T00:45:28;11.18;;;5.05;;
13801;SDS011;6972;51.518;6.918;2022-07-23T00:47:54;8.25;;;4.97;;
13801;SDS011;6972;51.518;6.918;2022-07-23T00:50:20;6.25;;;4.93;;
13801;SDS011;6972;51.518;6.918;2022-07-23T00:52:46;9.77;;;5.70;;
13801;SDS011;6972;51.518;6.918;2022-07-23T00:55:12;10.65;;;5.53;;
13801;SDS011;6972;51.518;6.918;2022-07-23T00:57:39;11.27;;;5.97;;
13801;SDS011;6972;51.518;6.918;2022-07-23T01:00:06;12.88;;;5.60;;
13801;SDS011;6972;51.518;6.918;2022-07-23T01:02:34;11.88;;;6.03;;
13801;SDS011;6972;51.518;6.918;2022-07-23T01:05:00;9.15;;;5.50;;
13801;SDS011;6972;51.518;6.918;2022-07-23T01:07:26;8.77;;;5.55;;
13801;SDS011;6972;51.518;6.918;2022-07-23T01:09:52;11.00;;;6.15;;
13801;SDS011;6972;51.518;6.918;2022-07-23T01:12:19;10.80;;;5.57;;
13801;SDS011;6972;51.518;6.918;2022-07-23T01:14:52;8.60;;;5.88;;
13801;SDS011;6972;51.518;6.918;2022-07-23T01:17:22;13.27;;;5.72;;
13801;SDS011;6972;51.518;6.918;2022-07-23T01:19:48;10.10;;;5.85;;
13801;SDS011;6972;51.518;6.918;2022-07-23T01:22:14;8.63;;;5.50;;
13801;SDS011;6972;51.518;6.918;2022-07-23T01:24:42;9.05;;;5.35;;
13801;SDS011;6972;51.518;6.918;2022-07-23T01:27:08;10.02;;;6.25;;
13801;SDS011;6972;51.518;6.918;2022-07-23T01:29:34;14.68;;;5.90;;
13801;SDS011;6972;51.518;6.918;2022-07-23T01:32:00;8.48;;;5.60;;
13801;SDS011;6972;51.518;6.918;2022-07-23T01:34:26;14.00;;;6.00;;
13801;SDS011;6972;51.518;6.918;2022-07-23T01:36:52;9.15;;;6.07;;
13801;SDS011;6972;51.518;6.918;2022-07-23T01:39:18;7.47;;;5.45;;
13801;SDS011;6972;51.518;6.918;2022-07-23T01:41:44;9.57;;;5.93;;
13801;SDS011;6972;51.518;6.918;2022-07-23T01:44:10;9.38;;;5.78;;
13801;SDS011;6972;51.518;6.918;2022-07-23T01:46:36;11.60;;;5.90;;
13801;SDS011;6972;51.518;6.918;2022-07-23T01:49:03;9.95;;;6.10;;
13801;SDS011;6972;51.518;6.918;2022-07-23T01:51:29;13.95;;;5.50;;
13801;SDS011;6972;51.518;6.918;2022-07-23T01:53:54;9.63;;;6.57;;
13801;SDS011;6972;51.518;6.918;2022-07-23T01:56:20;7.35;;;5.45;;
13801;SDS011;6972;51.518;6.918;2022-07-23T01:58:47;9.45;;;6.03;;
13801;SDS011;6972;51.518;6.918;2022-07-23T02:01:13;9.15;;;6.10;;
13801;SDS011;6972;51.518;6.918;2022-07-23T02:03:39;8.73;;;6.88;;
13801;SDS011;6972;51.518;6.918;2022-07-23T02:06:05;9.13;;;6.28;;
13801;SDS011;6972;51.518;6.918;2022-07-23T02:08:31;7.05;;;6.25;;
13801;SDS011;6972;51.518;6.918;2022-07-23T02:10:57;8.65;;;6.30;;
13801;SDS011;6972;51.518;6.918;2022-07-23T02:13:23;8.50;;;5.75;;
13801;SDS011;6972;51.518;6.918;2022-07-23T02:15:48;11.80;;;6.28;;
13801;SDS011;6972;51.518;6.918;2022-07-23T02:18:14;11.98;;;6.57;;
13801;SDS011;6972;51.518;6.918;2022-07-23T02:20:40;9.15;;;6.65;;
13801;SDS011;6972;51.518;6.918;2022-07-23T02:23:07;11.05;;;6.25;;
13801;SDS011;6972;51.518;6.918;2022-07-23T02:25:33;11.40;;;6.13;;
13801;SDS011;6972;51.518;6.918;2022-07-23T02:27:59;9.73;;;6.75;;
13801;SDS011;6972;51.518;6.918;2022-07-23T02:30:25;9.85;;;6.10;;
13801;SDS011;6972;51.518;6.918;2022-07-23T02:32:51;8.27;;;6.30;;
13801;SDS011;6972;51.518;6.918;2022-07-23T02:35:17;9.25;;;6.63;;
13801;SDS011;6972;51.518;6.918;2022-07-23T02:37:43;8.48;;;7.15;;
13801;SDS011;6972;51.518;6.918;2022-07-23T02:40:08;9.77;;;6.88;;
13801;SDS011;6972;51.518;6.918;2022-07-23T02:42:35;9.75;;;6.50;;
13801;SDS011;6972;51.518;6.918;2022-07-23T02:45:01;8.38;;;6.50;;
13801;SDS011;6972;51.518;6.918;2022-07-23T02:47:26;15.88;;;7.55;;
13801;SDS011;6972;51.518;6.918;2022-07-23T02:49:52;12.20;;;6.93;;
13801;SDS011;6972;51.518;6.918;2022-07-23T02:52:18;9.18;;;6.68;;
13801;SDS011;6972;51.518;6.918;2022-07-23T02:54:43;11.40;;;7.18;;
13801;SDS011;6972;51.518;6.918;2022-07-23T02:57:09;13.05;;;6.97;;
13801;SDS011;6972;51.518;6.918;2022-07-23T02:59:35;11.48;;;7.00;;
13801;SDS011;6972;51.518;6.918;2022-07-23T03:02:00;9.80;;;6.72;;
13801;SDS011;6972;51.518;6.918;2022-07-23T03:04:26;9.98;;;7.07;;
13801;SDS011;6972;51.518;6.918;2022-07-23T03:06:52;11.85;;;6.78;;
13801;SDS011;6972;51.518;6.918;2022-07-23T03:09:18;12.05;;;7.32;;
13801;SDS011;6972;51.518;6.918;2022-07-23T03:11:44;10.50;;;6.75;;
13801;SDS011;6972;51.518;6.918;2022-07-23T03:14:10;11.57;;;7.40;;
13801;SDS011;6972;51.518;6.918;2022-07-23T03:16:38;9.48;;;7.22;;
13801;SDS011;6972;51.518;6.918;2022-07-23T03:19:04;9.70;;;7.00;;
13801;SDS011;6972;51.518;6.918;2022-07-23T03:21:30;12.68;;;7.72;;
13801;SDS011;6972;51.518;6.918;2022-07-23T03:23:56;10.63;;;6.75;;
13801;SDS011;6972;51.518;6.918;2022-07-23T03:26:22;10.27;;;7.10;;
13801;SDS011;6972;51.518;6.918;2022-07-23T03:28:50;8.05;;;7.22;;
13801;SDS011;6972;51.518;6.918;2022-07-23T03:31:17;9.23;;;7.68;;
13801;SDS011;6972;51.518;6.918;2022-07-23T03:33:43;11.88;;;7.45;;
13801;SDS011;6972;51.518;6.918;2022-07-23T03:36:09;13.13;;;7.32;;
13801;SDS011;6972;51.518;6.918;2022-07-23T03:38:34;8.48;;;7.22;;
13801;SDS011;6972;51.518;6.918;2022-07-23T03:41:01;8.20;;;6.90;;
13801;SDS011;6972;51.518;6.918;2022-07-23T03:43:26;12.73;;;7.53;;
13801;SDS011;6972;51.518;6.918;2022-07-23T03:45:52;10.65;;;7.35;;
13801;SDS011;6972;51.518;6.918;2022-07-23T03:48:18;9.43;;;7.10;;
13801;SDS011;6972;51.518;6.918;2022-07-23T03:50:44;11.38;;;7.75;;
13801;SDS011;6972;51.518;6.918;2022-07-23T03:53:10;8.15;;;7.35;;
13801;SDS011;6972;51.518;6.918;2022-07-23T03:55:35;7.72;;;6.57;;
13801;SDS011;6972;51.518;6.918;2022-07-23T03:58:02;13.57;;;8.52;;
13801;SDS011;6972;51.518;6.918;2022-07-23T04:00:28;13.57;;;8.10;;
13801;SDS011;6972;51.518;6.918;2022-07-23T04:02:54;13.98;;;7.95;;
13801;SDS011;6972;51.518;6.918;2022-07-23T04:05:20;12.57;;;7.57;;
13801;SDS011;6972;51.518;6.918;2022-07-23T04:07:46;14.75;;;8.25;;
13801;SDS011;6972;51.518;6.918;2022-07-23T04:10:12;13.43;;;8.10;;
13801;SDS011;6972;51.518;6.918;2022-07-23T04:12:38;12.35;;;8.23;;
13801;SDS011;6972;51.518;6.918;2022-07-23T04:15:04;12.45;;;8.32;;
13801;SDS011;6972;51.518;6.918;2022-07-23T04:17:31;15.05;;;8.95;;
13801;SDS011;6972;51.518;6.918;2022-07-23T04:19:57;11.23;;;8.18;;
13801;SDS011;6972;51.518;6.918;2022-07-23T04:22:23;12.73;;;8.10;;
13801;SDS011;6972;51.518;6.918;2022-07-23T04:24:49;11.38;;;8.50;;
13801;SDS011;6972;51.518;6.918;2022-07-23T04:27:15;12.85;;;8.27;;
13801;SDS011;6972;51.518;6.918;2022-07-23T04:29:41;11.13;;;8.32;;
13801;SDS011;6972;51.518;6.918;2022-07-23T04:32:07;13.07;;;8.75;;
13801;SDS011;6972;51.518;6.918;2022-07-23T04:34:33;12.27;;;8.02;;
13801;SDS011;6972;51.518;6.918;2022-07-23T04:36:58;10.20;;;8.30;;
13801;SDS011;6972;51.518;6.918;2022-07-23T04:39:24;10.68;;;8.30;;
13801;SDS011;6972;51.518;6.918;2022-07-23T04:41:50;10.98;;;7.82;;
13801;SDS011;6972;51.518;6.918;2022-07-23T04:44:16;11.63;;;8.40;;
13801;SDS011;6972;51.518;6.918;2022-07-23T04:46:42;17.05;;;8.43;;
13801;SDS011;6972;51.518;6.918;2022-07-23T04:49:08;14.13;;;9.07;;
13801;SDS011;6972;51.518;6.918;2022-07-23T04:51:34;11.77;;;8.52;;
13801;SDS011;6972;51.518;6.918;2022-07-23T04:54:00;12.40;;;7.68;;
13801;SDS011;6972;51.518;6.918;2022-07-23T04:56:26;11.63;;;8.90;;
13801;SDS011;6972;51.518;6.918;2022-07-23T04:58:52;11.88;;;8.10;;
13801;SDS011;6972;51.518;6.918;2022-07-23T05:01:18;20.50;;;8.68;;
13801;SDS011;6972;51.518;6.918;2022-07-23T05:03:44;13.02;;;8.45;;
13801;SDS011;6972;51.518;6.918;2022-07-23T05:06:10;11.32;;;8.20;;
13801;SDS011;6972;51.518;6.918;2022-07-23T05:08:39;10.02;;;9.02;;
13801;SDS011;6972;51.518;6.918;2022-07-23T05:11:04;12.27;;;8.90;;
13801;SDS011;6972;51.518;6.918;2022-07-23T05:13:30;13.15;;;8.73;;
13801;SDS011;6972;51.518;6.918;2022-07-23T05:15:56;16.23;;;9.25;;
13801;SDS011;6972;51.518;6.918;2022-07-23T05:18:22;13.27;;;9.30;;
13801;SDS011;6972;51.518;6.918;2022-07-23T05:20:48;14.50;;;9.40;;
13801;SDS011;6972;51.518;6.918;2022-07-23T05:23:14;12.40;;;9.65;;
13801;SDS011;6972;51.518;6.918;2022-07-23T05:25:40;11.57;;;8.48;;
13801;SDS011;6972;51.518;6.918;2022-07-23T05:28:06;14.55;;;8.98;;
13801;SDS011;6972;51.518;6.918;2022-07-23T05:30:32;11.93;;;9.07;;
13801;SDS011;6972;51.518;6.918;2022-07-23T05:32:58;12.20;;;8.93;;
13801;SDS011;6972;51.518;6.918;2022-07-23T05:35:24;13.30;;;9.50;;
13801;SDS011;6972;51.518;6.918;2022-07-23T05:37:50;14.20;;;9.50;;
13801;SDS011;6972;51.518;6.918;2022-07-23T05:40:17;14.82;;;10.10;;
13801;SDS011;6972;51.518;6.918;2022-07-23T05:42:43;18.13;;;9.30;;
13801;SDS011;6972;51.518;6.918;2022-07-23T05:45:09;15.55;;;10.18;;
13801;SDS011;6972;51.518;6.918;2022-07-23T05:47:42;18.85;;;9.93;;
13801;SDS011;6972;51.518;6.918;2022-07-23T05:50:10;12.93;;;9.90;;
13801;SDS011;6972;51.518;6.918;2022-07-23T05:52:37;13.00;;;9.60;;
13801;SDS011;6972;51.518;6.918;2022-07-23T05:55:03;15.50;;;10.15;;
13801;SDS011;6972;51.518;6.918;2022-07-23T05:57:30;13.95;;;10.10;;
13801;SDS011;6972;51.518;6.918;2022-07-23T05:59:56;11.82;;;9.95;;
13801;SDS011;6972;51.518;6.918;2022-07-23T06:02:22;13.13;;;9.55;;
13801;SDS011;6972;51.518;6.918;2022-07-23T06:04:47;15.35;;;10.55;;
13801;SDS011;6972;51.518;6.918;2022-07-23T06:07:13;15.02;;;10.18;;
13801;SDS011;6972;51.518;6.918;2022-07-23T06:09:39;12.57;;;9.80;;
13801;SDS011;6972;51.518;6.918;2022-07-23T06:12:04;19.40;;;10.32;;
13801;SDS011;6972;51.518;6.918;2022-07-23T06:14:30;19.85;;;10.30;;
13801;SDS011;6972;51.518;6.918;2022-07-23T06:16:56;14.88;;;10.10;;
13801;SDS011;6972;51.518;6.918;2022-07-23T06:19:22;14.85;;;10.18;;
13801;SDS011;6972;51.518;6.918;2022-07-23T06:21:48;20.52;;;10.73;;
13801;SDS011;6972;51.518;6.918;2022-07-23T06:24:14;16.55;;;10.40;;
13801;SDS011;6972;51.518;6.918;2022-07-23T06:26:40;18.33;;;10.77;;
13801;SDS011;6972;51.518;6.918;2022-07-23T06:29:06;14.30;;;10.48;;
13801;SDS011;6972;51.518;6.918;2022-07-23T06:31:32;13.38;;;9.43;;
13801;SDS011;6972;51.518;6.918;2022-07-23T06:33:58;14.57;;;10.38;;
13801;SDS011;6972;51.518;6.918;2022-07-23T06:36:24;19.00;;;10.50;;
13801;SDS011;6972;51.518;6.918;2022-07-23T06:38:50;16.17;;;10.40;;
13801;SDS011;6972;51.518;6.918;2022-07-23T06:41:16;14.45;;;10.48;;
13801;SDS011;6972;51.518;6.918;2022-07-23T06:43:42;23.52;;;12.27;;
13801;SDS011;6972;51.518;6.918;2022-07-23T06:46:08;18.92;;;12.57;;
13801;SDS011;6972;51.518;6.918;2022-07-23T06:48:34;16.23;;;10.95;;
13801;SDS011;6972;51.518;6.918;2022-07-23T06:51:01;22.27;;;11.95;;
13801;SDS011;6972;51.518;6.918;2022-07-23T06:53:27;22.60;;;12.13;;
13801;SDS011;6972;51.518;6.918;2022-07-23T06:55:53;15.15;;;11.70;;
13801;SDS011;6972;51.518;6.918;2022-07-23T06:58:19;19.48;;;12.25;;
13801;SDS011;6972;51.518;6.918;2022-07-23T07:00:45;15.82;;;10.63;;
13801;SDS011;6972;51.518;6.918;2022-07-23T07:03:11;14.60;;;9.13;;
13801;SDS011;6972;51.518;6.918;2022-07-23T07:05:36;13.45;;;8.25;;
13801;SDS011;6972;51.518;6.918;2022-07-23T07:08:04;13.90;;;8.20;;
13801;SDS011;6972;51.518;6.918;2022-07-23T07:10:30;11.65;;;8.05;;
13801;SDS011;6972;51.518;6.918;2022-07-23T07:12:56;10.55;;;7.95;;
13801;SDS011;6972;51.518;6.918;2022-07-23T07:15:22;11.40;;;7.45;;
13801;SDS011;6972;51.518;6.918;2022-07-23T07:17:48;13.93;;;8.13;;
13801;SDS011;6972;51.518;6.918;2022-07-23T07:20:14;11.35;;;7.65;;
13801;SDS011;6972;51.518;6.918;2022-07-23T07:22:40;11.93;;;7.38;;
13801;SDS011;6972;51.518;6.918;2022-07-23T07:25:06;12.60;;;7.32;;
13801;SDS011;6972;51.518;6.918;2022-07-23T07:27:32;12.48;;;7.50;;
13801;SDS011;6972;51.518;6.918;2022-07-23T07:29:58;11.52;;;7.55;;
13801;SDS011;6972;51.518;6.918;2022-07-23T07:32:24;10.48;;;7.32;;
13801;SDS011;6972;51.518;6.918;2022-07-23T07:34:50;12.15;;;6.88;;
13801;SDS011;6972;51.518;6.918;2022-07-23T07:37:16;11.57;;;6.72;;
13801;SDS011;6972;51.518;6.918;2022-07-23T07:39:42;12.18;;;6.80;;
13801;SDS011;6972;51.518;6.918;2022-07-23T07:42:08;11.57;;;6.05;;
13801;SDS011;6972;51.518;6.918;2022-07-23T07:44:34;8.90;;;5.97;;
13801;SDS011;6972;51.518;6.918;2022-07-23T07:47:03;6.93;;;5.68;;
13801;SDS011;6972;51.518;6.918;2022-07-23T07:49:29;11.57;;;6.25;;
13801;SDS011;6972;51.518;6.918;2022-07-23T07:51:54;9.05;;;5.70;;
13801;SDS011;6972;51.518;6.918;2022-07-23T07:54:20;11.40;;;5.45;;
13801;SDS011;6972;51.518;6.918;2022-07-23T07:56:46;10.55;;;5.20;;
13801;SDS011;6972;51.518;6.918;2022-07-23T07:59:13;9.95;;;4.07;;
13801;SDS011;6972;51.518;6.918;2022-07-23T08:01:39;8.75;;;4.00;;
13801;SDS011;6972;51.518;6.918;2022-07-23T08:04:05;7.03;;;3.97;;
13801;SDS011;6972;51.518;6.918;2022-07-23T08:06:31;7.22;;;4.07;;
13801;SDS011;6972;51.518;6.918;2022-07-23T08:08:57;5.57;;;3.65;;
13801;SDS011;6972;51.518;6.918;2022-07-23T08:11:23;5.97;;;3.53;;
13801;SDS011;6972;51.518;6.918;2022-07-23T08:13:48;7.10;;;4.10;;
13801;SDS011;6972;51.518;6.918;2022-07-23T08:16:14;10.57;;;4.13;;
13801;SDS011;6972;51.518;6.918;2022-07-23T08:18:40;6.82;;;4.40;;
13801;SDS011;6972;51.518;6.918;2022-07-23T08:21:06;5.97;;;3.78;;
13801;SDS011;6972;51.518;6.918;2022-07-23T08:23:32;11.25;;;4.50;;
13801;SDS011;6972;51.518;6.918;2022-07-23T08:25:58;6.95;;;4.20;;
13801;SDS011;6972;51.518;6.918;2022-07-23T08:28:24;8.25;;;4.05;;
13801;SDS011;6972;51.518;6.918;2022-07-23T08:30:50;7.80;;;3.95;;
13801;SDS011;6972;51.518;6.918;2022-07-23T08:33:17;8.60;;;3.85;;
13801;SDS011;6972;51.518;6.918;2022-07-23T08:35:44;7.55;;;3.83;;
13801;SDS011;6972;51.518;6.918;2022-07-23T08:38:12;7.07;;;4.00;;
13801;SDS011;6972;51.518;6.918;2022-07-23T08:40:40;15.25;;;4.20;;
13801;SDS011;6972;51.518;6.918;2022-07-23T08:43:12;9.95;;;3.50;;
13801;SDS011;6972;51.518;6.918;2022-07-23T08:45:40;7.88;;;4.20;;
13801;SDS011;6972;51.518;6.918;2022-07-23T08:48:08;7.40;;;4.00;;
13801;SDS011;6972;51.518;6.918;2022-07-23T08:50:48;5.20;;;3.28;;
13801;SDS011;6972;51.518;6.918;2022-07-23T08:53:15;8.32;;;4.50;;
13801;SDS011;6972;51.518;6.918;2022-07-23T08:55:49;10.38;;;3.47;;
13801;SDS011;6972;51.518;6.918;2022-07-23T08:58:20;7.22;;;4.20;;
13801;SDS011;6972;51.518;6.918;2022-07-23T09:00:47;6.07;;;3.92;;
13801;SDS011;6972;51.518;6.918;2022-07-23T09:03:14;6.15;;;3.80;;
13801;SDS011;6972;51.518;6.918;2022-07-23T09:05:52;7.53;;;4.07;;
13801;SDS011;6972;51.518;6.918;2022-07-23T09:08:21;6.00;;;3.45;;
13801;SDS011;6972;51.518;6.918;2022-07-23T09:11:10;5.43;;;3.33;;
13801;SDS011;6972;51.518;6.918;2022-07-23T09:13:56;6.03;;;3.30;;
13801;SDS011;6972;51.518;6.918;2022-07-23T09:16:24;7.90;;;3.38;;
13801;SDS011;6972;51.518;6.918;2022-07-23T09:18:57;8.05;;;4.28;;
13801;SDS011;6972;51.518;6.918;2022-07-23T09:21:37;5.55;;;3.10;;
13801;SDS011;6972;51.518;6.918;2022-07-23T09:24:04;6.50;;;3.47;;
13801;SDS011;6972;51.518;6.918;2022-07-23T09:26:38;4.53;;;3.58;;
13801;SDS011;6972;51.518;6.918;2022-07-23T09:29:19;7.90;;;4.20;;
13801;SDS011;6972;51.518;6.918;2022-07-23T09:34:27;7.20;;;3.15;;
13801;SDS011;6972;51.518;6.918;2022-07-23T09:37:08;5.13;;;2.90;;
13801;SDS011;6972;51.518;6.918;2022-07-23T09:39:34;4.60;;;3.10;;
13801;SDS011;6972;51.518;6.918;2022-07-23T09:42:13;10.80;;;3.30;;
13801;SDS011;6972;51.518;6.918;2022-07-23T09:44:42;5.05;;;2.63;;
13801;SDS011;6972;51.518;6.918;2022-07-23T09:47:09;5.13;;;2.55;;
13801;SDS011;6972;51.518;6.918;2022-07-23T09:49:38;3.65;;;2.15;;
13801;SDS011;6972;51.518;6.918;2022-07-23T09:52:04;6.38;;;2.17;;
13801;SDS011;6972;51.518;6.918;2022-07-23T09:59:38;6.47;;;2.83;;
13801;SDS011;6972;51.518;6.918;2022-07-23T10:02:05;4.22;;;2.65;;
13801;SDS011;6972;51.518;6.918;2022-07-23T10:04:32;3.90;;;2.65;;
13801;SDS011;6972;51.518;6.918;2022-07-23T10:07:00;4.35;;;2.70;;
13801;SDS011;6972;51.518;6.918;2022-07-23T10:09:32;12.05;;;2.70;;
13801;SDS011;6972;51.518;6.918;2022-07-23T10:12:09;5.72;;;2.42;;
13801;SDS011;6972;51.518;6.918;2022-07-23T10:14:46;6.55;;;2.70;;
13801;SDS011;6972;51.518;6.918;2022-07-23T10:17:13;4.05;;;2.58;;
13801;SDS011;6972;51.518;6.918;2022-07-23T10:19:39;2.85;;;1.90;;
13801;SDS011;6972;51.518;6.918;2022-07-23T10:22:14;6.78;;;2.30;;
13801;SDS011;6972;51.518;6.918;2022-07-23T10:34:39;6.53;;;2.28;;
13801;SDS011;6972;51.518;6.918;2022-07-23T10:39:31;4.20;;;1.90;;
13801;SDS011;6972;51.518;6.918;2022-07-23T10:42:07;4.57;;;2.17;;
13801;SDS011;6972;51.518;6.918;2022-07-23T10:44:38;3.47;;;1.88;;
13801;SDS011;6972;51.518;6.918;2022-07-23T10:47:05;4.30;;;2.13;;
13801;SDS011;6972;51.518;6.918;2022-07-23T10:49:46;4.95;;;1.90;;
13801;SDS011;6972;51.518;6.918;2022-07-23T10:54:55;3.10;;;1.73;;
13801;SDS011;6972;51.518;6.918;2022-07-23T10:57:23;2.88;;;1.98;;
13801;SDS011;6972;51.518;6.918;2022-07-23T11:02:41;3.72;;;1.88;;
13801;SDS011;6972;51.518;6.918;2022-07-23T11:05:09;3.05;;;2.20;;
13801;SDS011;6972;51.518;6.918;2022-07-23T11:08:12;5.45;;;1.92;;
13801;SDS011;6972;51.518;6.918;2022-07-23T11:10:38;7.22;;;2.20;;
13801;SDS011;6972;51.518;6.918;2022-07-23T11:32:04;2.95;;;1.80;;
13801;SDS011;6972;51.518;6.918;2022-07-23T11:34:32;5.55;;;2.05;;
13801;SDS011;6972;51.518;6.918;2022-07-23T11:37:00;3.78;;;2.08;;
13801;SDS011;6972;51.518;6.918;2022-07-23T11:39:28;3.30;;;2.17;;
13801;SDS011;6972;51.518;6.918;2022-07-23T11:41:55;4.40;;;1.95;;
13801;SDS011;6972;51.518;6.918;2022-07-23T11:44:28;3.08;;;1.77;;
13801;SDS011;6972;51.518;6.918;2022-07-23T11:46:56;2.47;;;2.00;;
13801;SDS011;6972;51.518;6.918;2022-07-23T11:49:22;3.63;;;1.95;;
13801;SDS011;6972;51.518;6.918;2022-07-23T11:54:37;3.65;;;1.80;;
13801;SDS011;6972;51.518;6.918;2022-07-23T11:57:13;3.47;;;1.70;;
13801;SDS011;6972;51.518;6.918;2022-07-23T11:59:39;4.63;;;1.75;;
13801;SDS011;6972;51.518;6.918;2022-07-23T12:02:06;4.22;;;1.77;;
13801;SDS011;6972;51.518;6.918;2022-07-23T12:04:38;2.78;;;2.00;;
13801;SDS011;6972;51.518;6.918;2022-07-23T12:09:54;2.15;;;1.55;;
13801;SDS011;6972;51.518;6.918;2022-07-23T12:12:20;3.83;;;1.80;;
13801;SDS011;6972;51.518;6.918;2022-07-23T12:14:47;3.65;;;1.83;;
13801;SDS011;6972;51.518;6.918;2022-07-23T12:17:20;3.15;;;1.70;;
13801;SDS011;6972;51.518;6.918;2022-07-23T12:19:52;5.13;;;1.92;;
13801;SDS011;6972;51.518;6.918;2022-07-23T12:22:19;1.92;;;1.60;;
13801;SDS011;6972;51.518;6.918;2022-07-23T12:24:55;2.33;;;1.70;;
13801;SDS011;6972;51.518;6.918;2022-07-23T12:27:22;3.95;;;1.80;;
13801;SDS011;6972;51.518;6.918;2022-07-23T12:29:49;4.95;;;2.00;;
13801;SDS011;6972;51.518;6.918;2022-07-23T12:32:25;5.38;;;1.75;;
13801;SDS011;6972;51.518;6.918;2022-07-23T12:35:04;2.20;;;1.67;;
13801;SDS011;6972;51.518;6.918;2022-07-23T12:37:40;3.67;;;1.63;;
13801;SDS011;6972;51.518;6.918;2022-07-23T12:43:01;2.85;;;2.00;;
13801;SDS011;6972;51.518;6.918;2022-07-23T12:45:41;4.90;;;1.98;;
13801;SDS011;6972;51.518;6.918;2022-07-23T12:51:03;3.67;;;1.88;;
13801;SDS011;6972;51.518;6.918;2022-07-23T12:53:49;3.00;;;2.00;;
13801;SDS011;6972;51.518;6.918;2022-07-23T12:56:18;2.42;;;1.67;;
13801;SDS011;6972;51.518;6.918;2022-07-23T12:58:51;6.00;;;2.20;;
13801;SDS011;6972;51.518;6.918;2022-07-23T13:06:23;3.28;;;1.73;;
13801;SDS011;6972;51.518;6.918;2022-07-23T13:08:49;2.08;;;1.60;;
13801;SDS011;6972;51.518;6.918;2022-07-23T13:11:15;3.78;;;1.80;;
13801;SDS011;6972;51.518;6.918;2022-07-23T13:13:41;3.90;;;2.05;;
13801;SDS011;6972;51.518;6.918;2022-07-23T13:16:07;3.78;;;1.90;;
13801;SDS011;6972;51.518;6.918;2022-07-23T13:18:33;2.28;;;1.92;;
13801;SDS011;6972;51.518;6.918;2022-07-23T13:20:59;4.47;;;1.83;;
13801;SDS011;6972;51.518;6.918;2022-07-23T13:23:26;3.45;;;1.90;;
13801;SDS011;6972;51.518;6.918;2022-07-23T13:25:52;2.78;;;1.83;;
13801;SDS011;6972;51.518;6.918;2022-07-23T13:28:18;4.47;;;1.80;;
13801;SDS011;6972;51.518;6.918;2022-07-23T13:30:46;3.15;;;1.95;;
13801;SDS011;6972;51.518;6.918;2022-07-23T13:33:14;3.95;;;1.80;;
13801;SDS011;6972;51.518;6.918;2022-07-23T13:35:44;4.38;;;1.98;;
13801;SDS011;6972;51.518;6.918;2022-07-23T13:38:10;2.55;;;1.80;;
13801;SDS011;6972;51.518;6.918;2022-07-23T13:40:37;3.72;;;2.00;;
13801;SDS011;6972;51.518;6.918;2022-07-23T13:43:05;4.93;;;2.25;;
13801;SDS011;6972;51.518;6.918;2022-07-23T13:45:32;7.43;;;2.30;;
13801;SDS011;6972;51.518;6.918;2022-07-23T13:47:58;4.72;;;1.70;;
13801;SDS011;6972;51.518;6.918;2022-07-23T13:50:24;3.05;;;2.00;;
13801;SDS011;6972;51.518;6.918;2022-07-23T13:52:50;2.65;;;1.92;;
13801;SDS011;6972;51.518;6.918;2022-07-23T13:55:16;3.15;;;1.92;;
13801;SDS011;6972;51.518;6.918;2022-07-23T13:57:42;2.92;;;2.00;;
13801;SDS011;6972;51.518;6.918;2022-07-23T14:00:09;4.88;;;2.20;;
13801;SDS011;6972;51.518;6.918;2022-07-23T14:02:37;5.05;;;1.90;;
13801;SDS011;6972;51.518;6.918;2022-07-23T14:05:05;4.65;;;2.03;;
13801;SDS011;6972;51.518;6.918;2022-07-23T14:07:34;2.33;;;1.63;;
13801;SDS011;6972;51.518;6.918;2022-07-23T14:10:04;4.13;;;2.00;;
13801;SDS011;6972;51.518;6.918;2022-07-23T14:12:31;2.80;;;2.17;;
13801;SDS011;6972;51.518;6.918;2022-07-23T14:14:57;3.03;;;2.10;;
13801;SDS011;6972;51.518;6.918;2022-07-23T14:17:23;3.33;;;2.20;;
13801;SDS011;6972;51.518;6.918;2022-07-23T14:19:49;6.60;;;1.90;;
13801;SDS011;6972;51.518;6.918;2022-07-23T14:22:16;4.90;;;2.03;;
13801;SDS011;6972;51.518;6.918;2022-07-23T14:24:42;4.00;;;2.10;;
13801;SDS011;6972;51.518;6.918;2022-07-23T14:27:07;5.53;;;2.40;;
13801;SDS011;6972;51.518;6.918;2022-07-23T14:29:33;2.38;;;2.00;;
13801;SDS011;6972;51.518;6.918;2022-07-23T14:31:59;2.55;;;1.80;;
13801;SDS011;6972;51.518;6.918;2022-07-23T14:34:25;4.18;;;1.85;;
13801;SDS011;6972;51.518;6.918;2022-07-23T14:36:51;3.53;;;2.15;;
13801;SDS011;6972;51.518;6.918;2022-07-23T14:39:17;5.60;;;2.28;;
13801;SDS011;6972;51.518;6.918;2022-07-23T14:41:43;3.25;;;2.25;;
13801;SDS011;6972;51.518;6.918;2022-07-23T14:44:09;5.68;;;2.40;;
13801;SDS011;6972;51.518;6.918;2022-07-23T14:46:38;4.50;;;1.92;;
13801;SDS011;6972;51.518;6.918;2022-07-23T14:49:04;4.95;;;1.95;;
13801;SDS011;6972;51.518;6.918;2022-07-23T14:51:30;2.38;;;1.98;;
13801;SDS011;6972;51.518;6.918;2022-07-23T14:53:56;3.75;;;2.10;;
13801;SDS011;6972;51.518;6.918;2022-07-23T14:56:22;4.18;;;1.85;;
13801;SDS011;6972;51.518;6.918;2022-07-23T14:58:48;4.75;;;1.80;;
13801;SDS011;6972;51.518;6.918;2022-07-23T15:01:14;7.20;;;1.80;;
13801;SDS011;6972;51.518;6.918;2022-07-23T15:03:40;3.70;;;2.20;;
13801;SDS011;6972;51.518;6.918;2022-07-23T15:06:06;3.97;;;2.00;;
13801;SDS011;6972;51.518;6.918;2022-07-23T15:08:32;3.28;;;2.15;;
13801;SDS011;6972;51.518;6.918;2022-07-23T15:10:58;2.85;;;2.08;;
13801;SDS011;6972;51.518;6.918;2022-07-23T15:13:24;4.65;;;1.73;;
13801;SDS011;6972;51.518;6.918;2022-07-23T15:15:50;4.38;;;2.00;;
13801;SDS011;6972;51.518;6.918;2022-07-23T15:18:16;2.38;;;1.95;;
13801;SDS011;6972;51.518;6.918;2022-07-23T15:20:42;4.45;;;2.22;;
13801;SDS011;6972;51.518;6.918;2022-07-23T15:23:08;4.25;;;2.15;;
13801;SDS011;6972;51.518;6.918;2022-07-23T15:25:34;3.40;;;2.00;;
13801;SDS011;6972;51.518;6.918;2022-07-23T15:28:00;4.90;;;2.30;;
13801;SDS011;6972;51.518;6.918;2022-07-23T15:30:26;2.33;;;1.70;;
13801;SDS011;6972;51.518;6.918;2022-07-23T15:32:53;5.57;;;2.20;;
13801;SDS011;6972;51.518;6.918;2022-07-23T15:35:19;4.28;;;2.03;;
13801;SDS011;6972;51.518;6.918;2022-07-23T15:37:45;2.38;;;1.92;;
13801;SDS011;6972;51.518;6.918;2022-07-23T15:40:11;6.47;;;2.20;;
13801;SDS011;6972;51.518;6.918;2022-07-23T15:42:37;2.47;;;1.80;;
13801;SDS011;6972;51.518;6.918;2022-07-23T15:45:03;4.65;;;1.95;;
13801;SDS011;6972;51.518;6.918;2022-07-23T15:47:30;2.35;;;1.60;;
13801;SDS011;6972;51.518;6.918;2022-07-23T15:49:56;8.38;;;1.85;;
13801;SDS011;6972;51.518;6.918;2022-07-23T15:52:21;4.20;;;1.88;;
13801;SDS011;6972;51.518;6.918;2022-07-23T15:54:47;3.78;;;1.88;;
13801;SDS011;6972;51.518;6.918;2022-07-23T15:57:13;3.45;;;2.00;;